createdAt,value
2022-08-24T00:01:20.641Z,4.07
2022-08-24T00:03:48.470Z,3.55
2022-08-24T00:06:23.930Z,5.15
2022-08-24T00:08:53.414Z,6.78
2022-08-24T00:11:21.402Z,3.75
2022-08-24T00:13:49.143Z,5.00
2022-08-24T00:16:18.105Z,3.03
2022-08-24T00:18:45.845Z,4.97
2022-08-24T00:21:13.467Z,6.07
2022-08-24T00:23:40.973Z,6.40
2022-08-24T00:26:09.281Z,5.47
2022-08-24T00:28:37.241Z,6.15
2022-08-24T00:31:05.349Z,5.22
2022-08-24T00:33:35.390Z,6.10
2022-08-24T00:36:04.889Z,3.95
2022-08-24T00:38:35.667Z,5.05
2022-08-24T00:41:03.764Z,4.90
2022-08-24T00:43:31.715Z,7.95
2022-08-24T00:46:14.632Z,4.18
2022-08-24T00:48:46.452Z,6.43
2022-08-24T00:51:27.617Z,4.78
2022-08-24T00:54:06.423Z,4.88
2022-08-24T00:56:42.701Z,3.03
2022-08-24T00:59:23.494Z,4.05
2022-08-24T01:01:54.989Z,5.30
2022-08-24T01:04:35.872Z,3.58
2022-08-24T01:07:03.538Z,4.88
2022-08-24T01:09:30.567Z,6.50
2022-08-24T01:11:58.678Z,5.30
2022-08-24T01:14:26.254Z,11.13
2022-08-24T01:17:11.944Z,5.75
2022-08-24T01:19:50.690Z,8.07
2022-08-24T01:22:58.945Z,5.25
2022-08-24T01:25:28.691Z,8.50
2022-08-24T01:28:00.835Z,8.63
2022-08-24T01:30:36.768Z,6.60
2022-08-24T01:33:08.205Z,8.85
2022-08-24T01:35:38.349Z,7.18
2022-08-24T01:38:09.621Z,9.00
2022-08-24T01:40:47.274Z,7.20
2022-08-24T01:43:15.195Z,6.32
2022-08-24T01:45:43.155Z,8.60
2022-08-24T01:48:15.074Z,5.75
2022-08-24T01:50:49.602Z,7.15
2022-08-24T01:53:16.910Z,5.18
2022-08-24T01:55:44.188Z,4.25
2022-08-24T01:58:11.527Z,4.60
2022-08-24T02:00:39.173Z,4.90
2022-08-24T02:03:06.662Z,5.38
2022-08-24T02:05:41.934Z,7.50
2022-08-24T02:08:09.000Z,4.80
2022-08-24T02:10:35.916Z,5.50
2022-08-24T02:13:04.078Z,6.07
2022-08-24T02:15:39.954Z,6.07
2022-08-24T02:18:15.615Z,6.85
2022-08-24T02:20:45.669Z,7.68
2022-08-24T02:23:14.596Z,7.80
2022-08-24T02:25:41.663Z,6.55
2022-08-24T02:28:08.564Z,11.20
2022-08-24T02:30:35.689Z,13.10
2022-08-24T02:33:02.873Z,6.40
2022-08-24T02:35:30.985Z,5.88
2022-08-24T02:37:58.682Z,5.28
2022-08-24T02:40:26.160Z,6.90
2022-08-24T02:42:53.270Z,6.07
2022-08-24T02:45:20.426Z,6.63
2022-08-24T02:47:47.916Z,5.57
2022-08-24T02:50:17.740Z,6.18
2022-08-24T02:52:45.492Z,5.10
2022-08-24T02:55:20.144Z,7.38
2022-08-24T02:57:48.525Z,7.35
2022-08-24T03:00:19.005Z,10.70
2022-08-24T03:02:46.077Z,6.93
2022-08-24T03:05:14.402Z,4.90
2022-08-24T03:07:41.416Z,5.57
2022-08-24T03:10:09.016Z,4.78
2022-08-24T03:12:35.976Z,6.10
2022-08-24T03:15:06.454Z,7.32
2022-08-24T03:17:33.795Z,6.80
2022-08-24T03:20:05.256Z,6.82
2022-08-24T03:22:32.343Z,5.95
2022-08-24T03:24:59.377Z,5.65
2022-08-24T03:27:26.704Z,8.05
2022-08-24T03:29:53.605Z,8.00
2022-08-24T03:32:21.465Z,7.82
2022-08-24T03:34:48.440Z,6.22
2022-08-24T03:37:16.286Z,4.97
2022-08-24T03:39:43.316Z,6.05
2022-08-24T03:42:10.433Z,6.82
2022-08-24T03:44:37.387Z,6.82
2022-08-24T03:47:04.472Z,7.47
2022-08-24T03:49:31.393Z,9.90
2022-08-24T03:51:59.020Z,7.38
2022-08-24T03:54:26.179Z,6.30
2022-08-24T03:56:53.267Z,3.60
2022-08-24T03:59:20.330Z,4.15
2022-08-24T04:01:47.756Z,5.13
2022-08-24T04:04:15.160Z,10.50
2022-08-24T04:06:44.493Z,6.68
2022-08-24T04:09:12.029Z,4.68
2022-08-24T04:11:41.305Z,9.93
2022-08-24T04:14:08.771Z,8.05
2022-08-24T04:16:53.473Z,8.93
2022-08-24T04:19:25.748Z,9.82
2022-08-24T04:21:53.749Z,7.43
2022-08-24T04:24:20.763Z,10.18
2022-08-24T04:26:50.517Z,8.95
2022-08-24T04:29:20.427Z,10.18
2022-08-24T04:31:48.073Z,11.70
2022-08-24T04:34:17.433Z,10.82
2022-08-24T04:36:46.281Z,9.00
2022-08-24T04:39:13.676Z,10.82
2022-08-24T04:41:42.577Z,10.32
2022-08-24T04:44:09.647Z,11.98
2022-08-24T04:46:36.593Z,14.73
2022-08-24T04:49:04.432Z,7.53
2022-08-24T04:51:36.187Z,10.88
2022-08-24T04:54:05.094Z,8.40
2022-08-24T04:56:32.101Z,8.20
2022-08-24T04:58:59.029Z,10.15
2022-08-24T05:01:28.593Z,8.25
2022-08-24T05:03:56.588Z,10.90
2022-08-24T05:06:27.570Z,13.80
2022-08-24T05:08:54.855Z,15.52
2022-08-24T05:11:22.976Z,16.63
2022-08-24T05:13:56.024Z,16.67
2022-08-24T05:16:23.570Z,20.52
2022-08-24T05:18:50.672Z,22.15
2022-08-24T05:21:21.689Z,17.88
2022-08-24T05:23:48.863Z,19.30
2022-08-24T05:26:25.435Z,20.40
2022-08-24T05:29:02.041Z,20.10
2022-08-24T05:31:32.599Z,20.67
2022-08-24T05:34:01.515Z,28.15
2022-08-24T05:36:35.614Z,23.63
2022-08-24T05:39:11.545Z,21.17
2022-08-24T05:41:43.884Z,20.63
2022-08-24T05:44:16.974Z,24.45
2022-08-24T05:46:45.195Z,19.52
2022-08-24T05:49:12.433Z,21.73
2022-08-24T05:51:40.193Z,20.00
2022-08-24T05:54:07.235Z,26.10
2022-08-24T05:56:34.186Z,20.55
2022-08-24T05:59:01.653Z,22.23
2022-08-24T06:01:28.855Z,20.17
2022-08-24T06:03:58.147Z,27.50
2022-08-24T06:06:26.758Z,25.17
2022-08-24T06:08:58.068Z,20.75
2022-08-24T06:11:30.448Z,31.92
2022-08-24T06:14:12.117Z,27.95
2022-08-24T06:16:45.151Z,23.50
2022-08-24T06:19:15.889Z,19.98
2022-08-24T06:21:44.542Z,22.63
2022-08-24T06:24:11.499Z,23.17
2022-08-24T06:26:56.821Z,20.90
2022-08-24T06:29:23.761Z,19.40
2022-08-24T06:31:54.271Z,20.90
2022-08-24T06:34:25.978Z,17.35
2022-08-24T06:36:53.011Z,17.63
2022-08-24T06:39:21.055Z,20.55
2022-08-24T06:41:48.043Z,16.83
2022-08-24T06:44:14.975Z,18.13
2022-08-24T06:46:41.970Z,16.38
2022-08-24T06:49:09.061Z,16.13
2022-08-24T06:51:35.958Z,14.07
2022-08-24T06:54:02.912Z,11.55
2022-08-24T06:56:29.867Z,12.85
2022-08-24T06:58:56.878Z,10.15
2022-08-24T07:01:26.996Z,13.98
2022-08-24T07:03:54.689Z,9.35
2022-08-24T07:06:23.553Z,10.93
2022-08-24T07:08:51.660Z,10.02
2022-08-24T07:11:21.966Z,6.78
2022-08-24T07:13:50.049Z,6.65
2022-08-24T07:16:22.149Z,10.48
2022-08-24T07:18:50.625Z,8.63
2022-08-24T07:21:19.691Z,5.95
2022-08-24T07:23:49.560Z,7.25
2022-08-24T07:26:23.349Z,6.78
2022-08-24T07:29:01.365Z,6.65
2022-08-24T07:31:32.056Z,10.68
2022-08-24T07:34:02.084Z,8.35
2022-08-24T07:36:29.218Z,9.07
2022-08-24T07:38:57.362Z,12.50
2022-08-24T07:44:15.701Z,8.25
2022-08-24T07:46:43.752Z,11.43
2022-08-24T07:49:29.469Z,9.73
2022-08-24T07:51:59.358Z,7.60
2022-08-24T07:54:28.709Z,9.20
2022-08-24T07:56:56.426Z,6.88
2022-08-24T07:59:23.407Z,8.25
2022-08-24T08:01:50.602Z,10.43
2022-08-24T08:04:21.932Z,9.15
2022-08-24T08:06:49.319Z,10.27
2022-08-24T08:09:16.570Z,11.68
2022-08-24T08:11:43.575Z,7.00
2022-08-24T08:14:11.040Z,7.57
2022-08-24T08:16:40.809Z,9.63
2022-08-24T08:19:11.522Z,7.13
2022-08-24T08:22:06.566Z,7.25
2022-08-24T08:24:33.863Z,8.15
2022-08-24T08:27:01.324Z,5.82
2022-08-24T08:29:31.737Z,6.95
2022-08-24T08:31:59.389Z,5.88
2022-08-24T08:34:26.886Z,6.80
2022-08-24T08:36:54.375Z,4.25
2022-08-24T08:39:22.399Z,5.88
2022-08-24T08:42:34.234Z,6.65
2022-08-24T08:45:56.257Z,5.15
2022-08-24T08:48:47.523Z,6.60
2022-08-24T08:51:44.781Z,3.70
2022-08-24T08:54:28.826Z,6.50
2022-08-24T08:57:20.036Z,6.53
2022-08-24T09:00:07.090Z,7.50
2022-08-24T09:03:16.789Z,6.30
2022-08-24T09:06:46.509Z,6.50
2022-08-24T09:09:53.813Z,3.83
2022-08-24T09:13:04.907Z,5.60
2022-08-24T09:15:59.168Z,5.53
2022-08-24T09:18:37.951Z,3.60
2022-08-24T09:21:23.245Z,4.97
2022-08-24T09:24:15.158Z,5.65
2022-08-24T09:26:56.568Z,5.40
2022-08-24T09:29:46.111Z,6.07
2022-08-24T09:32:34.771Z,6.38
2022-08-24T09:35:03.925Z,5.32
2022-08-24T09:38:22.163Z,4.00
2022-08-24T09:41:32.345Z,5.20
2022-08-24T09:44:52.244Z,4.18
2022-08-24T09:47:56.919Z,3.42
2022-08-24T09:51:12.854Z,6.90
2022-08-24T09:54:18.141Z,5.55
2022-08-24T09:57:19.974Z,3.72
2022-08-24T10:00:16.082Z,6.93
2022-08-24T10:03:36.098Z,3.40
2022-08-24T10:06:34.256Z,3.10
2022-08-24T10:09:11.342Z,4.65
2022-08-24T10:11:50.094Z,6.13
2022-08-24T10:15:19.946Z,7.18
2022-08-24T10:18:34.708Z,3.22
2022-08-24T10:21:26.926Z,5.68
2022-08-24T10:24:29.829Z,4.82
2022-08-24T10:27:46.619Z,4.18
2022-08-24T10:30:48.600Z,6.90
2022-08-24T10:33:35.848Z,2.70
2022-08-24T10:36:21.332Z,3.97
2022-08-24T10:39:22.097Z,4.15
2022-08-24T10:42:46.644Z,3.60
2022-08-24T10:46:10.187Z,2.13
2022-08-24T10:49:23.395Z,5.43
2022-08-24T10:52:30.665Z,3.88
2022-08-24T10:55:27.091Z,3.58
2022-08-24T10:58:14.894Z,4.30
2022-08-24T11:00:43.038Z,3.17
2022-08-24T11:03:28.261Z,2.45
2022-08-24T11:05:57.537Z,3.38
2022-08-24T11:08:28.624Z,1.55
2022-08-24T11:11:29.674Z,2.17
2022-08-24T11:14:25.111Z,2.28
2022-08-24T11:16:57.496Z,3.97
2022-08-24T11:19:27.469Z,3.65
2022-08-24T11:21:58.742Z,4.38
2022-08-24T11:24:30.077Z,2.42
2022-08-24T11:26:59.297Z,3.67
2022-08-24T11:29:52.119Z,3.88
2022-08-24T11:32:52.363Z,1.73
2022-08-24T11:35:36.443Z,3.05
2022-08-24T11:38:06.153Z,2.30
2022-08-24T11:40:41.316Z,5.03
2022-08-24T11:43:26.520Z,2.97
2022-08-24T11:46:18.253Z,1.65
2022-08-24T11:49:14.766Z,2.80
2022-08-24T11:51:50.401Z,3.28
2022-08-24T11:54:37.930Z,3.97
2022-08-24T11:57:09.513Z,2.80
2022-08-24T11:59:54.332Z,2.22
2022-08-24T12:03:00.562Z,2.05
2022-08-24T12:05:49.825Z,4.10
2022-08-24T12:09:06.255Z,3.10
2022-08-24T12:12:15.026Z,3.70
2022-08-24T12:14:44.702Z,4.93
2022-08-24T12:17:37.877Z,2.25
2022-08-24T12:20:32.010Z,2.92
2022-08-24T12:23:25.484Z,4.57
2022-08-24T12:26:05.231Z,1.95
2022-08-24T12:29:15.153Z,2.63
2022-08-24T12:32:05.410Z,2.20
2022-08-24T12:34:43.534Z,2.60
2022-08-24T12:37:32.441Z,3.58
2022-08-24T12:40:22.701Z,9.32
2022-08-24T12:42:56.676Z,3.65
2022-08-24T12:45:25.930Z,1.83
2022-08-24T12:50:29.093Z,4.65
2022-08-24T12:53:34.829Z,2.53
2022-08-24T12:56:29.625Z,2.85
2022-08-24T12:59:24.408Z,3.30
2022-08-24T13:02:17.640Z,3.72
2022-08-24T13:04:58.683Z,4.30
2022-08-24T13:07:25.741Z,4.13
2022-08-24T13:09:52.717Z,2.92
2022-08-24T13:12:38.470Z,4.15
2022-08-24T13:15:28.652Z,1.40
2022-08-24T13:18:03.236Z,1.60
2022-08-24T13:20:55.465Z,4.93
2022-08-24T13:23:24.520Z,4.72
2022-08-24T13:26:00.153Z,2.13
2022-08-24T13:28:45.559Z,2.58
2022-08-24T13:31:34.988Z,3.47
2022-08-24T13:34:11.269Z,3.63
2022-08-24T13:36:49.735Z,3.22
2022-08-24T13:40:00.346Z,2.38
2022-08-24T13:43:12.349Z,5.00
2022-08-24T13:46:01.858Z,4.03
2022-08-24T13:49:09.792Z,5.82
2022-08-24T13:52:08.275Z,2.22
2022-08-24T13:55:10.584Z,2.80
2022-08-24T13:58:04.462Z,3.78
2022-08-24T14:01:01.037Z,2.50
2022-08-24T14:03:54.397Z,3.70
2022-08-24T14:06:55.367Z,4.35
2022-08-24T14:09:56.640Z,3.00
2022-08-24T14:12:43.760Z,1.80
2022-08-24T14:15:28.828Z,3.95
2022-08-24T14:18:13.879Z,3.90
2022-08-24T14:21:17.951Z,4.80
2022-08-24T14:23:56.272Z,3.72
2022-08-24T14:26:36.943Z,2.05
2022-08-24T14:29:16.177Z,2.13
2022-08-24T14:32:11.705Z,3.85
2022-08-24T14:34:57.878Z,2.95
2022-08-24T14:38:01.967Z,2.22
2022-08-24T14:40:37.467Z,6.80
2022-08-24T14:43:32.195Z,5.30
2022-08-24T14:46:29.307Z,5.85
2022-08-24T14:49:18.228Z,1.55
2022-08-24T14:52:21.045Z,2.45
2022-08-24T14:55:37.407Z,2.65
2022-08-24T14:58:36.783Z,2.35
2022-08-24T15:01:25.048Z,2.78
2022-08-24T15:04:06.501Z,4.68
2022-08-24T15:06:39.644Z,54.67
2022-08-24T15:09:36.674Z,32.40
2022-08-24T15:12:37.415Z,35.70
2022-08-24T15:15:29.297Z,101.60
2022-08-24T15:18:06.489Z,18.15
2022-08-24T15:21:36.140Z,48.20
2022-08-24T15:24:51.116Z,45.88
2022-08-24T15:27:40.961Z,44.10
2022-08-24T15:30:30.696Z,45.03
2022-08-24T15:33:19.684Z,13.65
2022-08-24T15:36:04.923Z,12.13
2022-08-24T15:38:36.599Z,26.42
2022-08-24T15:41:29.009Z,14.02
2022-08-24T15:44:28.856Z,28.33
2022-08-24T15:47:01.837Z,23.25
2022-08-24T15:49:58.286Z,47.20
2022-08-24T15:52:47.163Z,74.65
2022-08-24T15:55:33.266Z,8.05
2022-08-24T15:58:26.988Z,7.72
2022-08-24T16:01:40.596Z,4.07
2022-08-24T16:04:15.100Z,3.22
2022-08-24T16:06:46.521Z,2.45
2022-08-24T16:09:19.607Z,2.00
2022-08-24T16:12:21.950Z,4.28
2022-08-24T16:15:11.453Z,4.80
2022-08-24T16:17:51.483Z,4.18
2022-08-24T16:20:24.391Z,3.05
2022-08-24T16:26:23.388Z,5.50
2022-08-24T16:28:53.537Z,3.90
2022-08-24T16:31:51.926Z,24.63
2022-08-24T16:34:30.506Z,7.25
2022-08-24T16:36:57.605Z,10.93
2022-08-24T16:39:24.737Z,6.18
2022-08-24T16:41:57.220Z,4.57
2022-08-24T16:44:27.242Z,3.42
2022-08-24T16:46:54.737Z,3.72
2022-08-24T16:49:21.677Z,3.75
2022-08-24T16:51:48.618Z,5.68
2022-08-24T16:54:15.572Z,3.65
2022-08-24T16:56:42.773Z,3.63
2022-08-24T16:59:20.480Z,3.63
2022-08-24T17:01:48.596Z,4.47
2022-08-24T17:04:16.300Z,4.43
2022-08-24T17:06:45.596Z,2.20
2022-08-24T17:09:12.538Z,8.50
2022-08-24T17:11:39.525Z,5.90
2022-08-24T17:14:07.057Z,3.05
2022-08-24T17:16:34.639Z,16.13
2022-08-24T17:19:08.117Z,13.77
2022-08-24T17:21:35.024Z,44.88
2022-08-24T17:24:02.013Z,21.90
2022-08-24T17:26:30.863Z,32.13
2022-08-24T17:28:58.770Z,21.33
2022-08-24T17:31:41.235Z,14.90
2022-08-24T17:34:08.768Z,3.40
2022-08-24T17:36:38.567Z,3.25
2022-08-24T17:39:07.358Z,3.63
2022-08-24T17:41:34.706Z,3.00
2022-08-24T17:44:01.718Z,5.93
2022-08-24T17:46:28.757Z,6.55
2022-08-24T17:48:57.817Z,4.25
2022-08-24T17:51:25.039Z,3.30
2022-08-24T17:53:52.342Z,6.22
2022-08-24T17:56:19.803Z,2.58
2022-08-24T17:59:05.680Z,3.38
2022-08-24T18:01:34.247Z,4.35
2022-08-24T18:04:01.221Z,4.68
2022-08-24T18:06:28.794Z,2.30
2022-08-24T18:08:59.392Z,3.88
2022-08-24T18:11:26.637Z,2.75
2022-08-24T18:13:54.649Z,2.85
2022-08-24T18:16:24.998Z,9.93
2022-08-24T18:18:54.033Z,3.80
2022-08-24T18:21:21.873Z,3.50
2022-08-24T18:23:50.303Z,1.92
2022-08-24T18:26:28.268Z,4.63
2022-08-24T18:29:00.371Z,4.50
2022-08-24T18:31:31.211Z,2.78
2022-08-24T18:33:58.174Z,4.55
2022-08-24T18:36:25.134Z,2.63
2022-08-24T18:38:53.219Z,4.50
2022-08-24T18:41:21.060Z,2.38
2022-08-24T18:43:48.808Z,2.50
2022-08-24T18:46:15.940Z,4.00
2022-08-24T18:48:43.051Z,7.28
2022-08-24T18:51:24.553Z,6.82
2022-08-24T18:54:10.373Z,7.57
2022-08-24T18:59:14.763Z,3.72
2022-08-24T19:02:02.335Z,3.50
2022-08-24T19:04:33.194Z,2.25
2022-08-24T19:07:02.116Z,3.28
2022-08-24T19:09:33.982Z,3.67
2022-08-24T19:12:02.998Z,3.15
2022-08-24T19:14:30.641Z,4.55
2022-08-24T19:16:57.859Z,4.20
2022-08-24T19:19:24.850Z,3.35
2022-08-24T19:21:52.637Z,3.03
2022-08-24T19:24:28.923Z,2.90
2022-08-24T19:26:56.792Z,6.30
2022-08-24T19:29:54.526Z,5.15
2022-08-24T19:32:23.438Z,4.85
2022-08-24T19:34:59.769Z,5.75
2022-08-24T19:37:27.377Z,5.93
2022-08-24T19:39:54.472Z,2.95
2022-08-24T19:42:21.995Z,3.50
2022-08-24T19:45:07.846Z,3.25
2022-08-24T19:47:35.401Z,5.45
2022-08-24T19:50:09.141Z,4.10
2022-08-24T19:52:37.701Z,4.93
2022-08-24T19:55:08.878Z,3.20
2022-08-24T19:57:47.915Z,4.07
2022-08-24T20:00:17.588Z,3.72
2022-08-24T20:02:47.312Z,2.67
2022-08-24T20:05:15.305Z,4.25
2022-08-24T20:07:44.451Z,4.03
2022-08-24T20:10:13.253Z,6.95
2022-08-24T20:12:41.658Z,3.38
2022-08-24T20:15:09.589Z,8.02
2022-08-24T20:17:37.246Z,12.00
2022-08-24T20:20:08.636Z,5.80
2022-08-24T20:22:35.669Z,8.38
2022-08-24T20:25:03.502Z,6.53
2022-08-24T20:27:31.104Z,7.20
2022-08-24T20:29:59.558Z,7.05
2022-08-24T20:32:28.899Z,7.57
2022-08-24T20:34:56.001Z,6.68
2022-08-24T20:37:27.411Z,6.95
2022-08-24T20:39:55.437Z,5.38
2022-08-24T20:42:28.191Z,7.88
2022-08-24T20:44:55.729Z,9.00
2022-08-24T20:47:23.052Z,6.25
2022-08-24T20:49:51.053Z,5.15
2022-08-24T20:52:18.242Z,9.43
2022-08-24T20:54:48.250Z,4.53
2022-08-24T20:57:18.275Z,5.60
2022-08-24T20:59:46.030Z,4.65
2022-08-24T21:02:13.015Z,6.20
2022-08-24T21:04:40.002Z,12.70
2022-08-24T21:07:11.635Z,5.97
2022-08-24T21:09:39.080Z,6.18
2022-08-24T21:12:07.432Z,6.95
2022-08-24T21:14:34.486Z,10.85
2022-08-24T21:17:04.109Z,4.88
2022-08-24T21:19:31.289Z,7.72
2022-08-24T21:21:58.451Z,12.10
2022-08-24T21:24:25.895Z,8.85
2022-08-24T21:26:54.065Z,7.55
2022-08-24T21:29:21.318Z,11.38
2022-08-24T21:32:08.887Z,6.90
2022-08-24T21:34:41.764Z,7.55
2022-08-24T21:37:15.754Z,6.15
2022-08-24T21:39:43.970Z,8.32
2022-08-24T21:42:16.987Z,12.27
2022-08-24T21:44:45.767Z,11.20
2022-08-24T21:47:13.022Z,5.75
2022-08-24T21:49:41.272Z,8.85
2022-08-24T21:52:11.618Z,9.85
2022-08-24T21:54:38.545Z,7.97
2022-08-24T21:57:05.977Z,9.30
2022-08-24T21:59:34.129Z,5.32
2022-08-24T22:02:01.814Z,8.73
2022-08-24T22:04:28.780Z,7.15
2022-08-24T22:06:55.740Z,7.28
2022-08-24T22:09:22.787Z,11.38
2022-08-24T22:11:51.783Z,9.95
2022-08-24T22:14:19.350Z,6.00
2022-08-24T22:16:46.486Z,7.78
2022-08-24T22:19:13.865Z,7.50
2022-08-24T22:21:47.852Z,12.70
2022-08-24T22:24:16.229Z,7.82
2022-08-24T22:26:43.906Z,6.88
2022-08-24T22:29:11.192Z,6.45
2022-08-24T22:31:41.912Z,9.20
2022-08-24T22:34:19.574Z,7.22
2022-08-24T22:36:48.349Z,8.82
2022-08-24T22:39:15.382Z,6.72
2022-08-24T22:41:42.299Z,9.60
2022-08-24T22:44:21.695Z,6.97
2022-08-24T22:46:59.020Z,6.97
2022-08-24T22:49:36.062Z,7.53
2022-08-24T22:52:05.944Z,7.40
2022-08-24T22:54:34.696Z,5.93
2022-08-24T22:57:03.434Z,10.52
2022-08-24T22:59:35.718Z,7.68
2022-08-24T23:02:15.348Z,9.70
2022-08-24T23:04:47.709Z,6.90
2022-08-24T23:07:15.242Z,5.75
2022-08-24T23:09:44.618Z,6.45
2022-08-24T23:12:18.484Z,6.80
2022-08-24T23:14:45.935Z,6.57
2022-08-24T23:17:13.140Z,5.95
2022-08-24T23:19:58.550Z,9.07
2022-08-24T23:22:25.831Z,8.82
2022-08-24T23:24:53.267Z,7.90
2022-08-24T23:27:20.884Z,9.30
2022-08-24T23:29:49.387Z,10.05
2022-08-24T23:32:18.639Z,8.38
2022-08-24T23:34:48.201Z,8.77
2022-08-24T23:37:17.761Z,11.02
2022-08-24T23:39:45.206Z,10.40
2022-08-24T23:42:12.305Z,9.80
2022-08-24T23:44:39.489Z,17.17
2022-08-24T23:47:07.113Z,11.00
2022-08-24T23:49:34.833Z,7.07
2022-08-24T23:52:02.045Z,9.65
2022-08-24T23:54:29.356Z,9.23
2022-08-24T23:56:57.520Z,10.52
2022-08-24T23:59:29.321Z,9.82
